sensor_id;sensor_type;location;lat;lon;timestamp;temperature;humidity
72786;DHT22;60902;53.876;10.674;2023-04-02T00:00:29;10.60;63.00
72786;DHT22;60902;53.876;10.674;2023-04-02T00:01:12;10.60;63.00
72786;DHT22;60902;53.876;10.674;2023-04-02T00:01:34;10.60;63.00
72786;DHT22;60902;53.876;10.674;2023-04-02T00:01:49;10.60;63.10
72786;DHT22;60902;53.876;10.674;2023-04-02T00:02:29;10.60;63.10
72786;DHT22;60902;53.876;10.674;2023-04-02T00:02:48;10.60;63.10
72786;DHT22;60902;53.876;10.674;2023-04-02T00:03:05;10.60;63.10
72786;DHT22;60902;53.876;10.674;2023-04-02T00:03:18;10.60;63.10
72786;DHT22;60902;53.876;10.674;2023-04-02T00:04:05;10.60;63.00
72786;DHT22;60902;53.876;10.674;2023-04-02T00:04:21;10.60;63.00
72786;DHT22;60902;53.876;10.674;2023-04-02T00:04:32;10.60;63.00
72786;DHT22;60902;53.876;10.674;2023-04-02T00:06:36;10.60;63.00
72786;DHT22;60902;53.876;10.674;2023-04-02T00:06:56;10.60;63.00
72786;DHT22;60902;53.876;10.674;2023-04-02T00:07:27;10.60;63.00
72786;DHT22;60902;53.876;10.674;2023-04-02T00:07:43;10.60;63.10
72786;DHT22;60902;53.876;10.674;2023-04-02T00:07:59;10.60;63.00
72786;DHT22;60902;53.876;10.674;2023-04-02T00:08:19;10.60;63.00
72786;DHT22;60902;53.876;10.674;2023-04-02T00:08:37;10.50;62.90
72786;DHT22;60902;53.876;10.674;2023-04-02T00:08:50;10.60;62.90
72786;DHT22;60902;53.876;10.674;2023-04-02T00:09:35;10.60;62.90
72786;DHT22;60902;53.876;10.674;2023-04-02T00:09:47;10.60;62.90
72786;DHT22;60902;53.876;10.674;2023-04-02T00:09:59;10.60;62.90
72786;DHT22;60902;53.876;10.674;2023-04-02T00:10:37;10.60;63.00
72786;DHT22;60902;53.876;10.674;2023-04-02T00:10:49;10.60;63.00
72786;DHT22;60902;53.876;10.674;2023-04-02T00:11:01;10.60;62.90
72786;DHT22;60902;53.876;10.674;2023-04-02T00:11:12;10.60;62.90
72786;DHT22;60902;53.876;10.674;2023-04-02T00:11:31;10.60;62.90
72786;DHT22;60902;53.876;10.674;2023-04-02T00:11:45;10.60;63.00
72786;DHT22;60902;53.876;10.674;2023-04-02T00:12:16;10.60;63.00
72786;DHT22;60902;53.876;10.674;2023-04-02T00:12:27;10.60;63.00
72786;DHT22;60902;53.876;10.674;2023-04-02T00:12:39;10.60;62.90
72786;DHT22;60902;53.876;10.674;2023-04-02T00:12:59;10.60;62.90
72786;DHT22;60902;53.876;10.674;2023-04-02T00:13:27;10.60;62.90
72786;DHT22;60902;53.876;10.674;2023-04-02T00:13:44;10.60;62.90
72786;DHT22;60902;53.876;10.674;2023-04-02T00:13:59;10.60;62.90
72786;DHT22;60902;53.876;10.674;2023-04-02T00:14:15;10.60;62.90
72786;DHT22;60902;53.876;10.674;2023-04-02T00:14:33;10.60;62.90
72786;DHT22;60902;53.876;10.674;2023-04-02T00:14:51;10.70;63.00
72786;DHT22;60902;53.876;10.674;2023-04-02T00:15:03;10.60;62.90
72786;DHT22;60902;53.876;10.674;2023-04-02T00:15:14;10.60;62.90
72786;DHT22;60902;53.876;10.674;2023-04-02T00:15:25;10.60;62.90
72786;DHT22;60902;53.876;10.674;2023-04-02T00:15:36;10.60;62.90
72786;DHT22;60902;53.876;10.674;2023-04-02T00:15:49;10.60;62.90
72786;DHT22;60902;53.876;10.674;2023-04-02T00:16:02;10.60;62.90
72786;DHT22;60902;53.876;10.674;2023-04-02T00:16:21;10.60;62.90
72786;DHT22;60902;53.876;10.674;2023-04-02T00:16:32;10.60;62.90
72786;DHT22;60902;53.876;10.674;2023-04-02T00:16:44;10.60;62.90
72786;DHT22;60902;53.876;10.674;2023-04-02T00:16:58;10.60;62.90
72786;DHT22;60902;53.876;10.674;2023-04-02T00:17:10;10.60;63.00
72786;DHT22;60902;53.876;10.674;2023-04-02T00:17:22;10.60;62.90
72786;DHT22;60902;53.876;10.674;2023-04-02T00:17:35;10.60;63.80
72786;DHT22;60902;53.876;10.674;2023-04-02T00:17:46;10.60;62.90
72786;DHT22;60902;53.876;10.674;2023-04-02T00:17:57;10.60;62.90
72786;DHT22;60902;53.876;10.674;2023-04-02T00:18:09;10.60;62.90
72786;DHT22;60902;53.876;10.674;2023-04-02T00:18:22;10.60;62.90
72786;DHT22;60902;53.876;10.674;2023-04-02T00:18:38;10.60;62.90
72786;DHT22;60902;53.876;10.674;2023-04-02T00:18:52;10.60;63.00
72786;DHT22;60902;53.876;10.674;2023-04-02T00:19:10;10.60;63.00
72786;DHT22;60902;53.876;10.674;2023-04-02T00:19:30;10.60;63.00
72786;DHT22;60902;53.876;10.674;2023-04-02T00:19:50;10.60;63.00
72786;DHT22;60902;53.876;10.674;2023-04-02T00:20:05;10.60;62.90
72786;DHT22;60902;53.876;10.674;2023-04-02T00:20:17;10.50;62.90
72786;DHT22;60902;53.876;10.674;2023-04-02T00:20:31;10.50;62.80
72786;DHT22;60902;53.876;10.674;2023-04-02T00:20:46;10.60;62.80
72786;DHT22;60902;53.876;10.674;2023-04-02T00:21:09;10.60;62.80
72786;DHT22;60902;53.876;10.674;2023-04-02T00:21:23;10.60;62.80
72786;DHT22;60902;53.876;10.674;2023-04-02T00:21:36;10.60;62.80
72786;DHT22;60902;53.876;10.674;2023-04-02T00:21:50;10.60;62.80
72786;DHT22;60902;53.876;10.674;2023-04-02T00:22:05;10.60;62.80
72786;DHT22;60902;53.876;10.674;2023-04-02T00:22:21;10.70;62.80
72786;DHT22;60902;53.876;10.674;2023-04-02T00:22:34;10.60;62.70
72786;DHT22;60902;53.876;10.674;2023-04-02T00:22:46;10.60;62.70
72786;DHT22;60902;53.876;10.674;2023-04-02T00:22:58;10.60;62.80
72786;DHT22;60902;53.876;10.674;2023-04-02T00:23:10;10.60;63.70
72786;DHT22;60902;53.876;10.674;2023-04-02T00:23:22;10.60;62.80
72786;DHT22;60902;53.876;10.674;2023-04-02T00:23:35;10.60;62.80
72786;DHT22;60902;53.876;10.674;2023-04-02T00:23:48;10.60;62.80
72786;DHT22;60902;53.876;10.674;2023-04-02T00:24:05;10.60;62.80
72786;DHT22;60902;53.876;10.674;2023-04-02T00:24:21;10.60;62.80
72786;DHT22;60902;53.876;10.674;2023-04-02T00:24:33;10.60;62.70
72786;DHT22;60902;53.876;10.674;2023-04-02T00:24:44;10.60;62.70
72786;DHT22;60902;53.876;10.674;2023-04-02T00:24:56;10.60;62.70
72786;DHT22;60902;53.876;10.674;2023-04-02T00:25:12;10.60;62.70
72786;DHT22;60902;53.876;10.674;2023-04-02T00:25:25;10.60;62.70
72786;DHT22;60902;53.876;10.674;2023-04-02T00:25:40;10.60;62.80
72786;DHT22;60902;53.876;10.674;2023-04-02T00:25:52;10.60;62.80
72786;DHT22;60902;53.876;10.674;2023-04-02T00:26:05;10.60;62.80
72786;DHT22;60902;53.876;10.674;2023-04-02T00:26:22;10.60;62.80
72786;DHT22;60902;53.876;10.674;2023-04-02T00:26:36;10.60;62.70
72786;DHT22;60902;53.876;10.674;2023-04-02T00:26:49;10.60;62.80
72786;DHT22;60902;53.876;10.674;2023-04-02T00:27:01;10.60;62.80
72786;DHT22;60902;53.876;10.674;2023-04-02T00:27:14;10.60;62.80
72786;DHT22;60902;53.876;10.674;2023-04-02T00:27:25;10.60;62.80
72786;DHT22;60902;53.876;10.674;2023-04-02T00:27:35;10.60;62.80
72786;DHT22;60902;53.876;10.674;2023-04-02T00:27:47;10.60;62.80
72786;DHT22;60902;53.876;10.674;2023-04-02T00:27:57;10.60;62.80
72786;DHT22;60902;53.876;10.674;2023-04-02T00:28:12;10.60;62.80
72786;DHT22;60902;53.876;10.674;2023-04-02T00:28:23;10.60;62.80
72786;DHT22;60902;53.876;10.674;2023-04-02T00:28:35;10.60;62.80
72786;DHT22;60902;53.876;10.674;2023-04-02T00:28:47;10.60;62.70
72786;DHT22;60902;53.876;10.674;2023-04-02T00:28:59;10.60;63.60
72786;DHT22;60902;53.876;10.674;2023-04-02T00:29:12;10.60;62.70
72786;DHT22;60902;53.876;10.674;2023-04-02T00:29:24;10.60;62.70
72786;DHT22;60902;53.876;10.674;2023-04-02T00:29:34;10.60;62.70
72786;DHT22;60902;53.876;10.674;2023-04-02T00:29:49;10.60;62.70
72786;DHT22;60902;53.876;10.674;2023-04-02T00:30:00;10.60;62.70
72786;DHT22;60902;53.876;10.674;2023-04-02T00:30:14;10.60;62.60
72786;DHT22;60902;53.876;10.674;2023-04-02T00:30:27;10.60;62.60
72786;DHT22;60902;53.876;10.674;2023-04-02T00:30:45;10.60;62.70
72786;DHT22;60902;53.876;10.674;2023-04-02T00:30:58;10.60;62.70
72786;DHT22;60902;53.876;10.674;2023-04-02T00:31:09;10.60;62.70
72786;DHT22;60902;53.876;10.674;2023-04-02T00:31:21;10.60;62.80
72786;DHT22;60902;53.876;10.674;2023-04-02T00:31:33;10.60;62.80
72786;DHT22;60902;53.876;10.674;2023-04-02T00:31:46;10.60;62.90
72786;DHT22;60902;53.876;10.674;2023-04-02T00:31:58;10.60;62.80
72786;DHT22;60902;53.876;10.674;2023-04-02T00:32:17;10.60;62.80
72786;DHT22;60902;53.876;10.674;2023-04-02T00:32:31;10.50;62.70
72786;DHT22;60902;53.876;10.674;2023-04-02T00:32:43;10.60;62.80
72786;DHT22;60902;53.876;10.674;2023-04-02T00:32:57;10.60;62.80
72786;DHT22;60902;53.876;10.674;2023-04-02T00:33:13;10.60;63.70
72786;DHT22;60902;53.876;10.674;2023-04-02T00:33:27;10.60;62.80
72786;DHT22;60902;53.876;10.674;2023-04-02T00:33:41;10.60;62.70
72786;DHT22;60902;53.876;10.674;2023-04-02T00:33:53;10.60;62.80
72786;DHT22;60902;53.876;10.674;2023-04-02T00:34:07;10.60;62.80
72786;DHT22;60902;53.876;10.674;2023-04-02T00:34:21;10.60;62.80
72786;DHT22;60902;53.876;10.674;2023-04-02T00:34:36;10.60;62.80
72786;DHT22;60902;53.876;10.674;2023-04-02T00:34:47;10.60;62.80
72786;DHT22;60902;53.876;10.674;2023-04-02T00:34:59;10.60;62.80
72786;DHT22;60902;53.876;10.674;2023-04-02T00:35:15;10.60;62.80
72786;DHT22;60902;53.876;10.674;2023-04-02T00:35:28;10.60;62.80
72786;DHT22;60902;53.876;10.674;2023-04-02T00:35:42;10.60;62.80
72786;DHT22;60902;53.876;10.674;2023-04-02T00:35:54;10.60;62.70
72786;DHT22;60902;53.876;10.674;2023-04-02T00:36:08;10.60;62.70
72786;DHT22;60902;53.876;10.674;2023-04-02T00:36:20;10.60;62.70
72786;DHT22;60902;53.876;10.674;2023-04-02T00:36:32;10.60;62.70
72786;DHT22;60902;53.876;10.674;2023-04-02T00:36:45;10.60;62.80
72786;DHT22;60902;53.876;10.674;2023-04-02T00:36:57;10.60;62.80
72786;DHT22;60902;53.876;10.674;2023-04-02T00:37:15;10.60;62.80
72786;DHT22;60902;53.876;10.674;2023-04-02T00:37:30;10.70;62.80
72786;DHT22;60902;53.876;10.674;2023-04-02T00:37:48;10.60;62.70
72786;DHT22;60902;53.876;10.674;2023-04-02T00:38:01;10.60;62.80
72786;DHT22;60902;53.876;10.674;2023-04-02T00:38:19;10.60;62.70
72786;DHT22;60902;53.876;10.674;2023-04-02T00:38:32;10.60;62.70
72786;DHT22;60902;53.876;10.674;2023-04-02T00:38:45;10.60;62.70
72786;DHT22;60902;53.876;10.674;2023-04-02T00:38:57;10.60;62.70
72786;DHT22;60902;53.876;10.674;2023-04-02T00:39:15;10.60;62.80
72786;DHT22;60902;53.876;10.674;2023-04-02T00:39:29;10.60;62.80
72786;DHT22;60902;53.876;10.674;2023-04-02T00:39:42;10.60;62.80
72786;DHT22;60902;53.876;10.674;2023-04-02T00:39:59;10.60;62.80
72786;DHT22;60902;53.876;10.674;2023-04-02T00:40:18;10.60;62.80
72786;DHT22;60902;53.876;10.674;2023-04-02T00:40:31;10.70;62.90
72786;DHT22;60902;53.876;10.674;2023-04-02T00:40:43;10.60;62.80
72786;DHT22;60902;53.876;10.674;2023-04-02T00:40:59;10.60;62.80
72786;DHT22;60902;53.876;10.674;2023-04-02T00:41:15;10.50;62.70
72786;DHT22;60902;53.876;10.674;2023-04-02T00:41:30;10.60;62.80
72786;DHT22;60902;53.876;10.674;2023-04-02T00:41:41;10.60;62.80
72786;DHT22;60902;53.876;10.674;2023-04-02T00:41:57;10.60;62.80
72786;DHT22;60902;53.876;10.674;2023-04-02T00:42:15;10.60;62.80
72786;DHT22;60902;53.876;10.674;2023-04-02T00:42:29;10.60;62.70
72786;DHT22;60902;53.876;10.674;2023-04-02T00:42:41;10.60;62.70
72786;DHT22;60902;53.876;10.674;2023-04-02T00:42:54;10.60;62.80
72786;DHT22;60902;53.876;10.674;2023-04-02T00:43:07;10.60;62.70
72786;DHT22;60902;53.876;10.674;2023-04-02T00:43:27;10.60;62.70
72786;DHT22;60902;53.876;10.674;2023-04-02T00:43:43;10.60;62.70
72786;DHT22;60902;53.876;10.674;2023-04-02T00:43:54;10.60;62.70
72786;DHT22;60902;53.876;10.674;2023-04-02T00:44:10;10.60;62.70
72786;DHT22;60902;53.876;10.674;2023-04-02T00:44:23;10.60;62.70
72786;DHT22;60902;53.876;10.674;2023-04-02T00:44:40;10.60;62.80
72786;DHT22;60902;53.876;10.674;2023-04-02T00:44:53;10.60;62.70
72786;DHT22;60902;53.876;10.674;2023-04-02T00:45:09;10.60;62.70
72786;DHT22;60902;53.876;10.674;2023-04-02T00:45:30;10.60;62.80
72786;DHT22;60902;53.876;10.674;2023-04-02T00:45:46;10.60;62.80
72786;DHT22;60902;53.876;10.674;2023-04-02T00:46:02;10.60;62.70
72786;DHT22;60902;53.876;10.674;2023-04-02T00:46:15;10.60;62.70
72786;DHT22;60902;53.876;10.674;2023-04-02T00:46:29;10.60;62.80
72786;DHT22;60902;53.876;10.674;2023-04-02T00:46:42;10.60;62.70
72786;DHT22;60902;53.876;10.674;2023-04-02T00:46:58;10.60;62.70
72786;DHT22;60902;53.876;10.674;2023-04-02T00:47:18;10.60;62.70
72786;DHT22;60902;53.876;10.674;2023-04-02T00:47:32;10.60;62.70
72786;DHT22;60902;53.876;10.674;2023-04-02T00:47:44;10.60;62.70
72786;DHT22;60902;53.876;10.674;2023-04-02T00:47:58;10.60;62.70
72786;DHT22;60902;53.876;10.674;2023-04-02T00:48:26;10.60;62.70
72786;DHT22;60902;53.876;10.674;2023-04-02T00:48:43;10.60;62.70
72786;DHT22;60902;53.876;10.674;2023-04-02T00:48:58;10.60;62.70
72786;DHT22;60902;53.876;10.674;2023-04-02T00:49:16;10.60;62.70
72786;DHT22;60902;53.876;10.674;2023-04-02T00:49:34;10.60;62.60
72786;DHT22;60902;53.876;10.674;2023-04-02T00:49:45;10.60;62.60
72786;DHT22;60902;53.876;10.674;2023-04-02T00:50:02;10.60;62.60
72786;DHT22;60902;53.876;10.674;2023-04-02T00:50:25;10.60;62.70
72786;DHT22;60902;53.876;10.674;2023-04-02T00:50:40;10.60;62.60
72786;DHT22;60902;53.876;10.674;2023-04-02T00:50:52;10.60;62.60
72786;DHT22;60902;53.876;10.674;2023-04-02T00:51:15;10.60;62.70
72786;DHT22;60902;53.876;10.674;2023-04-02T00:51:31;10.50;62.50
72786;DHT22;60902;53.876;10.674;2023-04-02T00:51:48;10.60;62.60
72786;DHT22;60902;53.876;10.674;2023-04-02T00:52:02;10.60;62.60
72786;DHT22;60902;53.876;10.674;2023-04-02T00:52:16;10.60;62.60
72786;DHT22;60902;53.876;10.674;2023-04-02T00:52:29;10.60;62.60
72786;DHT22;60902;53.876;10.674;2023-04-02T00:52:42;10.60;62.60
72786;DHT22;60902;53.876;10.674;2023-04-02T00:52:57;10.60;62.60
72786;DHT22;60902;53.876;10.674;2023-04-02T00:53:28;10.60;62.70
72786;DHT22;60902;53.876;10.674;2023-04-02T00:53:39;10.60;62.60
72786;DHT22;60902;53.876;10.674;2023-04-02T00:53:54;10.60;62.60
72786;DHT22;60902;53.876;10.674;2023-04-02T00:54:09;10.60;62.60
72786;DHT22;60902;53.876;10.674;2023-04-02T00:54:28;10.60;62.60
72786;DHT22;60902;53.876;10.674;2023-04-02T00:54:46;10.60;62.60
72786;DHT22;60902;53.876;10.674;2023-04-02T00:55:03;10.60;62.60
72786;DHT22;60902;53.876;10.674;2023-04-02T00:55:18;10.60;62.80
72786;DHT22;60902;53.876;10.674;2023-04-02T00:55:34;10.60;62.70
72786;DHT22;60902;53.876;10.674;2023-04-02T00:55:47;10.60;62.60
72786;DHT22;60902;53.876;10.674;2023-04-02T00:55:58;10.60;62.60
72786;DHT22;60902;53.876;10.674;2023-04-02T00:56:15;10.60;62.60
72786;DHT22;60902;53.876;10.674;2023-04-02T00:56:30;10.60;62.60
72786;DHT22;60902;53.876;10.674;2023-04-02T00:56:43;10.60;62.60
72786;DHT22;60902;53.876;10.674;2023-04-02T00:56:56;10.60;62.50
72786;DHT22;60902;53.876;10.674;2023-04-02T00:57:14;10.60;62.60
72786;DHT22;60902;53.876;10.674;2023-04-02T00:57:26;10.60;62.60
72786;DHT22;60902;53.876;10.674;2023-04-02T00:57:41;10.60;62.60
72786;DHT22;60902;53.876;10.674;2023-04-02T00:57:53;10.60;62.60
72786;DHT22;60902;53.876;10.674;2023-04-02T00:58:25;10.60;63.60
72786;DHT22;60902;53.876;10.674;2023-04-02T00:58:40;10.60;62.60
72786;DHT22;60902;53.876;10.674;2023-04-02T00:58:54;10.50;62.60
72786;DHT22;60902;53.876;10.674;2023-04-02T00:59:17;10.60;62.70
72786;DHT22;60902;53.876;10.674;2023-04-02T00:59:33;10.60;62.60
72786;DHT22;60902;53.876;10.674;2023-04-02T00:59:53;10.60;62.60
72786;DHT22;60902;53.876;10.674;2023-04-02T01:00:19;10.60;62.60
72786;DHT22;60902;53.876;10.674;2023-04-02T01:00:34;10.60;62.60
72786;DHT22;60902;53.876;10.674;2023-04-02T01:00:48;10.60;62.60
72786;DHT22;60902;53.876;10.674;2023-04-02T01:01:00;10.60;62.60
72786;DHT22;60902;53.876;10.674;2023-04-02T01:01:16;10.60;62.60
72786;DHT22;60902;53.876;10.674;2023-04-02T01:01:33;10.60;62.60
72786;DHT22;60902;53.876;10.674;2023-04-02T01:01:51;10.60;62.60
72786;DHT22;60902;53.876;10.674;2023-04-02T01:02:21;10.60;62.60
72786;DHT22;60902;53.876;10.674;2023-04-02T01:02:35;10.60;62.50
72786;DHT22;60902;53.876;10.674;2023-04-02T01:03:38;10.60;63.40
72786;DHT22;60902;53.876;10.674;2023-04-02T01:03:54;10.60;62.50
72786;DHT22;60902;53.876;10.674;2023-04-02T01:04:25;10.50;62.40
72786;DHT22;60902;53.876;10.674;2023-04-02T01:04:38;10.60;62.40
72786;DHT22;60902;53.876;10.674;2023-04-02T01:04:52;10.60;62.50
72786;DHT22;60902;53.876;10.674;2023-04-02T01:05:21;10.60;62.50
72786;DHT22;60902;53.876;10.674;2023-04-02T01:05:34;10.60;62.60
72786;DHT22;60902;53.876;10.674;2023-04-02T01:05:46;10.60;62.60
72786;DHT22;60902;53.876;10.674;2023-04-02T01:06:02;10.60;62.60
72786;DHT22;60902;53.876;10.674;2023-04-02T01:06:16;10.60;62.60
72786;DHT22;60902;53.876;10.674;2023-04-02T01:06:29;10.60;62.60
72786;DHT22;60902;53.876;10.674;2023-04-02T01:06:41;10.50;62.40
72786;DHT22;60902;53.876;10.674;2023-04-02T01:06:53;10.60;62.50
72786;DHT22;60902;53.876;10.674;2023-04-02T01:07:07;10.60;62.50
72786;DHT22;60902;53.876;10.674;2023-04-02T01:07:58;10.60;62.50
72786;DHT22;60902;53.876;10.674;2023-04-02T01:08:18;10.60;62.40
72786;DHT22;60902;53.876;10.674;2023-04-02T01:08:50;10.60;62.40
72786;DHT22;60902;53.876;10.674;2023-04-02T01:09:13;10.60;62.40
72786;DHT22;60902;53.876;10.674;2023-04-02T01:09:43;10.60;62.40
72786;DHT22;60902;53.876;10.674;2023-04-02T01:10:15;10.60;62.50
72786;DHT22;60902;53.876;10.674;2023-04-02T01:10:43;10.60;62.50
72786;DHT22;60902;53.876;10.674;2023-04-02T01:11:01;10.60;62.50
72786;DHT22;60902;53.876;10.674;2023-04-02T01:11:31;10.60;62.40
72786;DHT22;60902;53.876;10.674;2023-04-02T01:12:08;10.60;62.40
72786;DHT22;60902;53.876;10.674;2023-04-02T01:12:33;10.60;62.50
72786;DHT22;60902;53.876;10.674;2023-04-02T01:12:55;10.60;62.50
72786;DHT22;60902;53.876;10.674;2023-04-02T01:13:21;10.60;62.50
72786;DHT22;60902;53.876;10.674;2023-04-02T01:13:38;10.60;62.60
72786;DHT22;60902;53.876;10.674;2023-04-02T01:13:57;10.60;62.50
72786;DHT22;60902;53.876;10.674;2023-04-02T01:14:17;10.60;62.50
72786;DHT22;60902;53.876;10.674;2023-04-02T01:14:40;10.50;62.40
72786;DHT22;60902;53.876;10.674;2023-04-02T01:14:59;10.60;62.40
72786;DHT22;60902;53.876;10.674;2023-04-02T01:15:16;10.60;63.10
72786;DHT22;60902;53.876;10.674;2023-04-02T01:15:30;10.60;62.40
72786;DHT22;60902;53.876;10.674;2023-04-02T01:15:49;10.60;62.50
72786;DHT22;60902;53.876;10.674;2023-04-02T01:16:06;10.60;62.50
72786;DHT22;60902;53.876;10.674;2023-04-02T01:16:26;10.70;62.50
72786;DHT22;60902;53.876;10.674;2023-04-02T01:16:49;10.60;62.40
72786;DHT22;60902;53.876;10.674;2023-04-02T01:17:08;10.60;62.40
72786;DHT22;60902;53.876;10.674;2023-04-02T01:17:36;10.60;62.50
72786;DHT22;60902;53.876;10.674;2023-04-02T01:18:01;10.60;63.40
72786;DHT22;60902;53.876;10.674;2023-04-02T01:18:34;10.60;62.40
72786;DHT22;60902;53.876;10.674;2023-04-02T01:18:54;10.60;62.40
72786;DHT22;60902;53.876;10.674;2023-04-02T01:19:18;10.60;62.40
72786;DHT22;60902;53.876;10.674;2023-04-02T01:19:50;10.60;62.40
72786;DHT22;60902;53.876;10.674;2023-04-02T01:21:55;10.60;62.40
72786;DHT22;60902;53.876;10.674;2023-04-02T01:22:12;10.60;62.30
72786;DHT22;60902;53.876;10.674;2023-04-02T01:22:27;10.60;62.40
72786;DHT22;60902;53.876;10.674;2023-04-02T01:22:50;10.60;62.30
72786;DHT22;60902;53.876;10.674;2023-04-02T01:23:08;10.60;62.30
72786;DHT22;60902;53.876;10.674;2023-04-02T01:23:27;10.60;62.30
72786;DHT22;60902;53.876;10.674;2023-04-02T01:23:51;10.60;62.40
72786;DHT22;60902;53.876;10.674;2023-04-02T01:24:04;10.60;62.40
72786;DHT22;60902;53.876;10.674;2023-04-02T01:24:15;10.60;62.40
72786;DHT22;60902;53.876;10.674;2023-04-02T01:24:32;10.60;62.40
72786;DHT22;60902;53.876;10.674;2023-04-02T01:24:43;10.60;62.40
72786;DHT22;60902;53.876;10.674;2023-04-02T01:24:55;10.60;62.40
72786;DHT22;60902;53.876;10.674;2023-04-02T01:25:12;10.60;62.40
72786;DHT22;60902;53.876;10.674;2023-04-02T01:25:33;10.60;62.40
72786;DHT22;60902;53.876;10.674;2023-04-02T01:25:49;10.60;62.40
72786;DHT22;60902;53.876;10.674;2023-04-02T01:26:12;10.60;62.30
72786;DHT22;60902;53.876;10.674;2023-04-02T01:26:38;10.60;62.30
72786;DHT22;60902;53.876;10.674;2023-04-02T01:26:53;10.60;62.30
72786;DHT22;60902;53.876;10.674;2023-04-02T01:27:13;10.60;62.30
72786;DHT22;60902;53.876;10.674;2023-04-02T01:27:28;10.60;62.30
72786;DHT22;60902;53.876;10.674;2023-04-02T01:27:48;10.60;62.30
72786;DHT22;60902;53.876;10.674;2023-04-02T01:28:05;10.60;62.30
72786;DHT22;60902;53.876;10.674;2023-04-02T01:28:26;10.60;62.30
72786;DHT22;60902;53.876;10.674;2023-04-02T01:28:55;10.60;62.30
72786;DHT22;60902;53.876;10.674;2023-04-02T01:29:12;10.60;62.30
72786;DHT22;60902;53.876;10.674;2023-04-02T01:29:26;10.60;62.30
72786;DHT22;60902;53.876;10.674;2023-04-02T01:29:40;10.60;62.30
72786;DHT22;60902;53.876;10.674;2023-04-02T01:29:56;10.60;62.30
72786;DHT22;60902;53.876;10.674;2023-04-02T01:30:09;10.60;62.20
72786;DHT22;60902;53.876;10.674;2023-04-02T01:30:21;10.60;62.30
72786;DHT22;60902;53.876;10.674;2023-04-02T01:30:34;10.60;62.30
72786;DHT22;60902;53.876;10.674;2023-04-02T01:30:49;10.60;62.30
72786;DHT22;60902;53.876;10.674;2023-04-02T01:31:02;10.60;62.30
72786;DHT22;60902;53.876;10.674;2023-04-02T01:31:14;10.60;62.20
72786;DHT22;60902;53.876;10.674;2023-04-02T01:31:26;10.60;62.20
72786;DHT22;60902;53.876;10.674;2023-04-02T01:31:39;10.60;62.20
72786;DHT22;60902;53.876;10.674;2023-04-02T01:31:52;10.60;62.30
72786;DHT22;60902;53.876;10.674;2023-04-02T01:32:08;10.60;62.30
72786;DHT22;60902;53.876;10.674;2023-04-02T01:32:22;10.60;62.30
72786;DHT22;60902;53.876;10.674;2023-04-02T01:32:35;10.60;62.40
72786;DHT22;60902;53.876;10.674;2023-04-02T01:32:47;10.60;62.30
72786;DHT22;60902;53.876;10.674;2023-04-02T01:32:59;10.60;62.40
72786;DHT22;60902;53.876;10.674;2023-04-02T01:33:11;10.60;62.30
72786;DHT22;60902;53.876;10.674;2023-04-02T01:33:26;10.60;62.30
72786;DHT22;60902;53.876;10.674;2023-04-02T01:33:40;10.60;62.30
72786;DHT22;60902;53.876;10.674;2023-04-02T01:33:51;10.60;62.30
72786;DHT22;60902;53.876;10.674;2023-04-02T01:34:05;10.60;63.20
72786;DHT22;60902;53.876;10.674;2023-04-02T01:34:20;10.60;62.30
72786;DHT22;60902;53.876;10.674;2023-04-02T01:34:33;10.60;62.20
72786;DHT22;60902;53.876;10.674;2023-04-02T01:34:46;10.60;62.20
72786;DHT22;60902;53.876;10.674;2023-04-02T01:34:59;10.60;62.30
72786;DHT22;60902;53.876;10.674;2023-04-02T01:35:11;10.60;62.30
72786;DHT22;60902;53.876;10.674;2023-04-02T01:35:23;10.60;62.30
72786;DHT22;60902;53.876;10.674;2023-04-02T01:35:38;10.60;62.30
72786;DHT22;60902;53.876;10.674;2023-04-02T01:35:58;10.60;62.30
72786;DHT22;60902;53.876;10.674;2023-04-02T01:36:18;10.60;62.30
72786;DHT22;60902;53.876;10.674;2023-04-02T01:36:38;10.60;62.30
72786;DHT22;60902;53.876;10.674;2023-04-02T01:37:05;10.60;62.30
72786;DHT22;60902;53.876;10.674;2023-04-02T01:37:32;10.60;62.20
72786;DHT22;60902;53.876;10.674;2023-04-02T01:37:51;10.60;62.20
72786;DHT22;60902;53.876;10.674;2023-04-02T01:38:10;10.60;62.20
72786;DHT22;60902;53.876;10.674;2023-04-02T01:38:33;10.60;62.20
72786;DHT22;60902;53.876;10.674;2023-04-02T01:38:52;10.60;62.20
72786;DHT22;60902;53.876;10.674;2023-04-02T01:39:19;10.60;62.20
72786;DHT22;60902;53.876;10.674;2023-04-02T01:39:41;10.60;62.20
72786;DHT22;60902;53.876;10.674;2023-04-02T01:40:03;10.60;62.20
72786;DHT22;60902;53.876;10.674;2023-04-02T01:40:27;10.60;62.20
72786;DHT22;60902;53.876;10.674;2023-04-02T01:40:55;10.60;62.20
72786;DHT22;60902;53.876;10.674;2023-04-02T01:41:12;10.60;62.20
72786;DHT22;60902;53.876;10.674;2023-04-02T01:41:32;10.60;62.20
72786;DHT22;60902;53.876;10.674;2023-04-02T01:41:50;10.60;62.20
72786;DHT22;60902;53.876;10.674;2023-04-02T01:42:12;10.60;62.20
72786;DHT22;60902;53.876;10.674;2023-04-02T01:42:25;10.60;62.20
72786;DHT22;60902;53.876;10.674;2023-04-02T01:42:43;10.60;62.10
72786;DHT22;60902;53.876;10.674;2023-04-02T01:43:03;10.60;62.10
72786;DHT22;60902;53.876;10.674;2023-04-02T01:43:23;10.60;62.10
72786;DHT22;60902;53.876;10.674;2023-04-02T01:43:42;10.60;62.10
72786;DHT22;60902;53.876;10.674;2023-04-02T01:44:02;10.60;62.10
72786;DHT22;60902;53.876;10.674;2023-04-02T01:44:19;10.60;62.00
72786;DHT22;60902;53.876;10.674;2023-04-02T01:44:37;10.60;62.00
72786;DHT22;60902;53.876;10.674;2023-04-02T01:44:52;10.60;62.00
72786;DHT22;60902;53.876;10.674;2023-04-02T01:45:04;10.60;62.10
72786;DHT22;60902;53.876;10.674;2023-04-02T01:45:19;10.60;62.10
72786;DHT22;60902;53.876;10.674;2023-04-02T01:45:31;10.60;62.10
72786;DHT22;60902;53.876;10.674;2023-04-02T01:45:44;10.60;62.10
72786;DHT22;60902;53.876;10.674;2023-04-02T01:45:56;10.60;62.10
72786;DHT22;60902;53.876;10.674;2023-04-02T01:46:23;10.60;62.10
72786;DHT22;60902;53.876;10.674;2023-04-02T01:46:38;10.60;62.60
72786;DHT22;60902;53.876;10.674;2023-04-02T01:46:51;10.60;62.20
72786;DHT22;60902;53.876;10.674;2023-04-02T01:47:02;10.60;62.20
72786;DHT22;60902;53.876;10.674;2023-04-02T01:47:17;10.60;62.20
72786;DHT22;60902;53.876;10.674;2023-04-02T01:47:29;10.60;62.20
72786;DHT22;60902;53.876;10.674;2023-04-02T01:47:43;10.60;62.20
72786;DHT22;60902;53.876;10.674;2023-04-02T01:47:56;10.60;62.20
72786;DHT22;60902;53.876;10.674;2023-04-02T01:48:12;10.60;62.20